Darstellungsparameter: Aktuell verwendete Einstellungen:
Skalierung der Graphiken ... ?
xyx+y,   Skalierungsfaktor:      Skalierung: Modus: x, Faktor: 1
Darstellungszeitraum ... ?
Vom - - bis: - -   Zeitraum: 27.01.2022 - 29.01.2022
Min/Max/Avg-Anzeige ... ?
Zeige MMA aktuell
Zeige MMA Monat
Zeige MMA alles
Zeige --A aktuell
Zeige --A Monat
Zeige --A alles
Keine MMA-Anzeige
MMA:
Keine MMA-Graphiken
MMA-Basis: 27.01.2022 - 29.01.2022
Quicknavigation für Darstellung... ?
Tage:      1T, 2T, 3T, 5T -1T -2T -3T -5T +1T +2T +3T +5T
Wochen: 1W, 2W, 3W -1W -2W -3W +1W +2W +3W
Monate: 1M, 3M, 6M -1M -3M -6M +1M +3M +6M
Jahre:    1J, 3J, 5J, 10J -1J -3J -5J -10J +1J +3J +5J +10J
Nutze für die Darstellung ... ?
Originaldaten oder Mittelwerte auf ...
Stundenbasis Tagesbasis Wochenbasis
Monatsbasis Jahresbasis      Datenbasis: Original-Daten
Darstellen als:
Statistik (Auto) Statistik J:M      Darstellung:
Zur Graphik,    zurück zur Übersicht aller Sensoren.
 
Tabellarische Datenbersicht: ?
 
Sensor: Nr:Datum:Temp:Abs-Feuchte:Windchill:Wind:
Aussen-T/F 1 27-01-2022 00:00:00 2 C 4.89 g/m*3 -0.85 C 9.7 km/h
2 27-01-2022 00:05:00 2 C 4.89 g/m*3 0.13 C 6.4 km/h
3 27-01-2022 00:10:00 1.9 C 4.86 g/m*3 -0.97 C 9.7 km/h
4 27-01-2022 00:15:00 1.9 C 4.86 g/m*3 0.01 C 6.4 km/h
5 27-01-2022 00:20:00 1.9 C 4.86 g/m*3 0.01 C 6.4 km/h
6 27-01-2022 00:25:00 1.9 C 4.86 g/m*3 -0.97 C 9.7 km/h
7 27-01-2022 00:30:00 1.9 C 4.86 g/m*3 -0.54 C 8.1 km/h
8 27-01-2022 00:35:00 1.9 C 4.86 g/m*3 0.01 C 6.4 km/h
9 27-01-2022 00:40:00 1.9 C 4.86 g/m*3 0.01 C 6.4 km/h
10 27-01-2022 00:45:00 1.9 C 4.86 g/m*3 -0.54 C 8.1 km/h
11 27-01-2022 00:50:00 1.8 C 4.82 g/m*3 1.8 C 4.8 km/h
12 27-01-2022 00:55:00 1.8 C 4.88 g/m*3 1.8 C 4.8 km/h
13 27-01-2022 01:00:00 1.8 C 4.82 g/m*3 1.8 C 4.8 km/h
14 27-01-2022 01:05:00 1.8 C 4.88 g/m*3 -0.1 C 6.4 km/h
15 27-01-2022 01:10:00 1.8 C 4.88 g/m*3 -0.1 C 6.4 km/h
16 27-01-2022 01:15:00 1.8 C 4.88 g/m*3 -0.65 C 8.1 km/h
17 27-01-2022 01:20:00 1.8 C 4.88 g/m*3 -0.1 C 6.4 km/h
18 27-01-2022 01:25:00 1.8 C 4.88 g/m*3 -1.09 C 9.7 km/h
19 27-01-2022 01:30:00 1.8 C 4.88 g/m*3 -0.1 C 6.4 km/h
20 27-01-2022 01:35:00 1.8 C 4.88 g/m*3 -0.65 C 8.1 km/h
21 27-01-2022 01:40:00 1.8 C 4.88 g/m*3 -1.09 C 9.7 km/h
22 27-01-2022 01:45:00 1.8 C 4.88 g/m*3 -0.65 C 8.1 km/h
23 27-01-2022 01:50:00 1.8 C 4.88 g/m*3 -1.47 C 11.3 km/h
24 27-01-2022 01:55:00 1.8 C 4.88 g/m*3 -1.47 C 11.3 km/h
25 27-01-2022 02:00:00 1.8 C 4.88 g/m*3 -1.09 C 9.7 km/h
Sensor: Nr:Datum:Temp:Abs-Feuchte:Windchill:Wind:
Aussen-T/F 26 27-01-2022 02:05:00 1.8 C 4.88 g/m*3 1.8 C 4.8 km/h
27 27-01-2022 02:10:00 1.8 C 4.88 g/m*3 -1.09 C 9.7 km/h
28 27-01-2022 02:15:00 1.8 C 4.88 g/m*3 -0.1 C 6.4 km/h
29 27-01-2022 02:20:00 1.8 C 4.88 g/m*3 1.8 C 4.8 km/h
30 27-01-2022 02:25:00 1.8 C 4.88 g/m*3 1.8 C 4.8 km/h
31 27-01-2022 02:30:00 1.8 C 4.88 g/m*3 -0.1 C 6.4 km/h
32 27-01-2022 02:35:00 1.8 C 4.88 g/m*3 -0.65 C 8.1 km/h
33 27-01-2022 02:40:00 1.7 C 4.85 g/m*3 -0.22 C 6.4 km/h
34 27-01-2022 02:45:00 1.7 C 4.85 g/m*3 -0.77 C 8.1 km/h
35 27-01-2022 02:50:00 1.7 C 4.85 g/m*3 -1.21 C 9.7 km/h
36 27-01-2022 02:55:00 1.7 C 4.85 g/m*3 -1.59 C 11.3 km/h
37 27-01-2022 03:00:00 1.7 C 4.85 g/m*3 -0.22 C 6.4 km/h
38 27-01-2022 03:05:00 1.7 C 4.85 g/m*3 -0.77 C 8.1 km/h
39 27-01-2022 03:10:00 1.7 C 4.85 g/m*3 -1.21 C 9.7 km/h
40 27-01-2022 03:15:00 1.7 C 4.79 g/m*3 -1.59 C 11.3 km/h
41 27-01-2022 03:20:00 1.7 C 4.85 g/m*3 -1.93 C 12.9 km/h
42 27-01-2022 03:25:00 1.7 C 4.85 g/m*3 -1.21 C 9.7 km/h
43 27-01-2022 03:30:00 1.7 C 4.85 g/m*3 -0.77 C 8.1 km/h
44 27-01-2022 03:35:00 1.7 C 4.85 g/m*3 -1.21 C 9.7 km/h
45 27-01-2022 03:40:00 1.7 C 4.79 g/m*3 -1.21 C 9.7 km/h
46 27-01-2022 03:45:00 1.7 C 4.79 g/m*3 -1.59 C 11.3 km/h
47 27-01-2022 03:50:00 1.7 C 4.79 g/m*3 -1.59 C 11.3 km/h
48 27-01-2022 03:55:00 1.7 C 4.79 g/m*3 -0.77 C 8.1 km/h
49 27-01-2022 04:00:00 1.8 C 4.82 g/m*3 -1.47 C 11.3 km/h
50 27-01-2022 04:05:00 1.8 C 4.82 g/m*3 -1.09 C 9.7 km/h
Sensor: Nr:Datum:Temp:Abs-Feuchte:Windchill:Wind:
Aussen-T/F 51 27-01-2022 04:10:00 1.8 C 4.82 g/m*3 1.8 C 4.8 km/h
52 27-01-2022 04:15:00 1.8 C 4.82 g/m*3 -0.65 C 8.1 km/h
53 27-01-2022 04:20:00 1.8 C 4.82 g/m*3 -0.65 C 8.1 km/h
54 27-01-2022 04:25:00 1.8 C 4.82 g/m*3 1.8 C 4.8 km/h
55 27-01-2022 04:30:00 1.8 C 4.82 g/m*3 -0.65 C 8.1 km/h
56 27-01-2022 04:35:00 1.8 C 4.82 g/m*3 1.8 C 4.8 km/h
57 27-01-2022 04:40:00 1.8 C 4.82 g/m*3 1.8 C 4.8 km/h
58 27-01-2022 04:45:00 1.8 C 4.82 g/m*3 -0.1 C 6.4 km/h
59 27-01-2022 04:50:00 1.8 C 4.82 g/m*3 1.8 C 4.8 km/h
60 27-01-2022 04:55:00 1.8 C 4.82 g/m*3 -0.1 C 6.4 km/h
61 27-01-2022 05:00:00 1.8 C 4.82 g/m*3 -0.65 C 8.1 km/h
62 27-01-2022 05:05:00 1.8 C 4.82 g/m*3 -1.09 C 9.7 km/h
63 27-01-2022 05:10:00 1.8 C 4.82 g/m*3 -1.09 C 9.7 km/h
64 27-01-2022 05:15:00 1.8 C 4.82 g/m*3 -0.1 C 6.4 km/h
65 27-01-2022 05:20:00 1.9 C 4.86 g/m*3 -0.54 C 8.1 km/h
66 27-01-2022 05:25:00 1.9 C 4.86 g/m*3 -0.54 C 8.1 km/h
67 27-01-2022 05:30:00 1.9 C 4.86 g/m*3 0.01 C 6.4 km/h
68 27-01-2022 05:35:00 2 C 4.89 g/m*3 0.13 C 6.4 km/h
69 27-01-2022 05:40:00 2 C 4.89 g/m*3 0.13 C 6.4 km/h
70 27-01-2022 05:45:00 2 C 4.89 g/m*3 2 C 4.8 km/h
71 27-01-2022 05:50:00 2 C 4.89 g/m*3 -0.85 C 9.7 km/h
72 27-01-2022 05:55:00 2 C 4.89 g/m*3 -0.42 C 8.1 km/h
73 27-01-2022 06:00:00 2 C 4.89 g/m*3 -0.85 C 9.7 km/h
74 27-01-2022 06:05:00 2.1 C 4.92 g/m*3 2.1 C 4.8 km/h
75 27-01-2022 06:10:00 2.1 C 4.92 g/m*3 2.1 C 3.2 km/h
Sensor: Nr:Datum:Temp:Abs-Feuchte:Windchill:Wind:
Aussen-T/F 76 27-01-2022 06:15:00 2.1 C 4.92 g/m*3 2.1 C 4.8 km/h
77 27-01-2022 06:20:00 2.1 C 4.92 g/m*3 0.24 C 6.4 km/h
78 27-01-2022 06:25:00 2.1 C 4.92 g/m*3 2.1 C 1.6 km/h
79 27-01-2022 06:30:00 2.1 C 4.92 g/m*3 2.1 C 0 km/h
80 27-01-2022 06:35:00 2.1 C 4.92 g/m*3 2.1 C 3.2 km/h
81 27-01-2022 06:40:00 2.1 C 4.92 g/m*3 2.1 C 4.8 km/h
82 27-01-2022 06:45:00 2.1 C 4.92 g/m*3 2.1 C 3.2 km/h
83 27-01-2022 06:50:00 2.1 C 4.92 g/m*3 0.24 C 6.4 km/h
84 27-01-2022 06:55:00 2.1 C 4.98 g/m*3 2.1 C 3.2 km/h
85 27-01-2022 07:00:00 2.1 C 4.98 g/m*3 -0.73 C 9.7 km/h
86 27-01-2022 07:05:00 2.2 C 5.01 g/m*3 -0.61 C 9.7 km/h
87 27-01-2022 07:10:00 2.2 C 5.01 g/m*3 -0.99 C 11.3 km/h
88 27-01-2022 07:15:00 2.2 C 5.01 g/m*3 -0.61 C 9.7 km/h
89 27-01-2022 07:20:00 2.3 C 5.05 g/m*3 -0.07 C 8.1 km/h
90 27-01-2022 07:25:00 2.3 C 5.05 g/m*3 0.47 C 6.4 km/h
91 27-01-2022 07:30:00 2.3 C 5.05 g/m*3 -0.49 C 9.7 km/h
92 27-01-2022 07:35:00 2.3 C 5.05 g/m*3 -0.07 C 8.1 km/h
93 27-01-2022 07:40:00 2.3 C 5.05 g/m*3 0.47 C 6.4 km/h
94 27-01-2022 07:45:00 2.3 C 5.05 g/m*3 -0.49 C 9.7 km/h
95 27-01-2022 07:50:00 2.4 C 5.08 g/m*3 0.05 C 8.1 km/h
96 27-01-2022 07:55:00 2.4 C 5.08 g/m*3 -0.37 C 9.7 km/h
97 27-01-2022 08:00:00 2.4 C 5.08 g/m*3 0.59 C 6.4 km/h
98 27-01-2022 08:05:00 2.4 C 5.08 g/m*3 2.4 C 4.8 km/h
99 27-01-2022 08:10:00 2.4 C 5.08 g/m*3 2.4 C 3.2 km/h
100 27-01-2022 08:15:00 2.4 C 5.08 g/m*3 2.4 C 0 km/h
Sensor: Nr:Datum:Temp:Abs-Feuchte:Windchill:Wind:
Aussen-T/F 101 27-01-2022 08:20:00 2.4 C 5.08 g/m*3 2.4 C 4.8 km/h
102 27-01-2022 08:25:00 2.4 C 5.08 g/m*3 2.4 C 3.2 km/h
103 27-01-2022 08:30:00 2.4 C 5.14 g/m*3 2.4 C 3.2 km/h
104 27-01-2022 08:35:00 2.5 C 5.17 g/m*3 2.5 C 0 km/h
105 27-01-2022 08:40:00 2.5 C 5.17 g/m*3 0.17 C 8.1 km/h
106 27-01-2022 08:45:00 2.6 C 5.21 g/m*3 -0.83 C 12.9 km/h
107 27-01-2022 08:50:00 2.7 C 5.24 g/m*3 2.7 C 1.6 km/h
108 27-01-2022 08:55:00 2.7 C 5.24 g/m*3 2.7 C 0 km/h
109 27-01-2022 09:00:00 2.7 C 5.24 g/m*3 2.7 C 4.8 km/h
110 27-01-2022 09:05:00 2.8 C 5.28 g/m*3 0.52 C 8.1 km/h
111 27-01-2022 09:10:00 2.9 C 5.32 g/m*3 -0.14 C 11.3 km/h
112 27-01-2022 09:15:00 3 C 5.35 g/m*3 -0.9 C 16.1 km/h
113 27-01-2022 09:20:00 3.1 C 5.39 g/m*3 0.1 C 11.3 km/h
114 27-01-2022 09:25:00 3.2 C 5.42 g/m*3 0.58 C 9.7 km/h
115 27-01-2022 09:30:00 3.2 C 5.42 g/m*3 0.22 C 11.3 km/h
116 27-01-2022 09:35:00 3.2 C 5.42 g/m*3 0.99 C 8.1 km/h
117 27-01-2022 09:40:00 3.2 C 5.42 g/m*3 0.22 C 11.3 km/h
118 27-01-2022 09:45:00 3.2 C 5.42 g/m*3 0.58 C 9.7 km/h
119 27-01-2022 09:50:00 3.3 C 5.46 g/m*3 0.02 C 12.9 km/h
120 27-01-2022 09:55:00 3.3 C 5.46 g/m*3 0.7 C 9.7 km/h
121 27-01-2022 10:00:00 3.3 C 5.46 g/m*3 0.34 C 11.3 km/h
122 27-01-2022 10:05:00 3.4 C 5.5 g/m*3 0.14 C 12.9 km/h
123 27-01-2022 10:10:00 3.5 C 5.53 g/m*3 0.94 C 9.7 km/h
124 27-01-2022 10:15:00 3.6 C 5.51 g/m*3 0.11 C 14.5 km/h
125 27-01-2022 10:20:00 3.7 C 5.55 g/m*3 0.82 C 11.3 km/h
Sensor: Nr:Datum:Temp:Abs-Feuchte:Windchill:Wind:
Aussen-T/F 126 27-01-2022 10:25:00 3.8 C 5.58 g/m*3 0.35 C 14.5 km/h
127 27-01-2022 10:30:00 4 C 5.66 g/m*3 0.11 C 17.7 km/h
128 27-01-2022 10:35:00 4.1 C 5.63 g/m*3 0.24 C 17.7 km/h
129 27-01-2022 10:40:00 4.2 C 5.67 g/m*3 1.43 C 11.3 km/h
130 27-01-2022 10:45:00 4.2 C 5.67 g/m*3 0.84 C 14.5 km/h
131 27-01-2022 10:50:00 4.2 C 5.67 g/m*3 0.84 C 14.5 km/h
132 27-01-2022 10:55:00 4.2 C 5.67 g/m*3 0.15 C 19.3 km/h
133 27-01-2022 11:00:00 4.1 C 5.63 g/m*3 1 C 12.9 km/h
134 27-01-2022 11:05:00 4.1 C 5.63 g/m*3 0.72 C 14.5 km/h
135 27-01-2022 11:10:00 4.1 C 5.63 g/m*3 1.31 C 11.3 km/h
136 27-01-2022 11:15:00 4.1 C 5.63 g/m*3 0.47 C 16.1 km/h
137 27-01-2022 11:20:00 4.1 C 5.63 g/m*3 -0.55 C 24.1 km/h
138 27-01-2022 11:25:00 4.1 C 5.7 g/m*3 0.02 C 19.3 km/h
139 27-01-2022 11:30:00 4.1 C 5.7 g/m*3 0.47 C 16.1 km/h
140 27-01-2022 11:35:00 4.1 C 5.7 g/m*3 -0.55 C 24.1 km/h
141 27-01-2022 11:40:00 4.2 C 5.73 g/m*3 0.84 C 14.5 km/h
142 27-01-2022 11:45:00 4.2 C 5.73 g/m*3 -0.42 C 24.1 km/h
143 27-01-2022 11:50:00 4.2 C 5.73 g/m*3 -0.05 C 20.9 km/h
144 27-01-2022 11:55:00 4.1 C 5.7 g/m*3 1 C 12.9 km/h
145 27-01-2022 12:00:00 4.2 C 5.73 g/m*3 1.77 C 9.7 km/h
146 27-01-2022 12:05:00 4.2 C 5.73 g/m*3 2.17 C 8.1 km/h
147 27-01-2022 12:10:00 4.1 C 5.7 g/m*3 0.24 C 17.7 km/h
148 27-01-2022 12:15:00 4.1 C 5.7 g/m*3 0.47 C 16.1 km/h
149 27-01-2022 12:20:00 4 C 5.66 g/m*3 0.11 C 17.7 km/h
150 27-01-2022 12:25:00 3.9 C 5.62 g/m*3 -0.01 C 17.7 km/h
Sensor: Nr:Datum:Temp:Abs-Feuchte:Windchill:Wind:
Aussen-T/F 151 27-01-2022 12:30:00 3.9 C 5.62 g/m*3 -0.23 C 19.3 km/h
152 27-01-2022 12:35:00 3.9 C 5.62 g/m*3 -0.23 C 19.3 km/h
153 27-01-2022 12:40:00 3.9 C 5.62 g/m*3 -0.23 C 19.3 km/h
154 27-01-2022 12:45:00 3.9 C 5.62 g/m*3 -0.23 C 19.3 km/h
155 27-01-2022 12:50:00 3.9 C 5.62 g/m*3 0.22 C 16.1 km/h
156 27-01-2022 12:55:00 4 C 5.66 g/m*3 -0.5 C 22.5 km/h
157 27-01-2022 13:00:00 4 C 5.66 g/m*3 0.11 C 17.7 km/h
158 27-01-2022 13:05:00 4 C 5.66 g/m*3 0.11 C 17.7 km/h
159 27-01-2022 13:10:00 4 C 5.72 g/m*3 0.11 C 17.7 km/h
160 27-01-2022 13:15:00 4.1 C 5.82 g/m*3 0.24 C 17.7 km/h
161 27-01-2022 13:20:00 4.2 C 5.8 g/m*3 -0.24 C 22.5 km/h
162 27-01-2022 13:25:00 4.2 C 5.8 g/m*3 -0.05 C 20.9 km/h
163 27-01-2022 13:30:00 4.2 C 5.8 g/m*3 -0.75 C 27.4 km/h
164 27-01-2022 13:35:00 4.2 C 5.86 g/m*3 0.59 C 16.1 km/h
165 27-01-2022 13:40:00 4.2 C 5.86 g/m*3 0.36 C 17.7 km/h
166 27-01-2022 13:45:00 4.1 C 5.82 g/m*3 0.47 C 16.1 km/h
167 27-01-2022 13:50:00 4.1 C 5.82 g/m*3 -0.88 C 27.4 km/h
168 27-01-2022 13:55:00 4.1 C 5.82 g/m*3 -0.18 C 20.9 km/h
169 27-01-2022 14:00:00 4.1 C 5.82 g/m*3 -0.55 C 24.1 km/h
170 27-01-2022 14:05:00 4.1 C 5.82 g/m*3 -0.18 C 20.9 km/h
171 27-01-2022 14:10:00 4.1 C 5.82 g/m*3 0.02 C 19.3 km/h
172 27-01-2022 14:15:00 4.1 C 5.76 g/m*3 0.02 C 19.3 km/h
173 27-01-2022 14:20:00 4.1 C 5.76 g/m*3 0.02 C 19.3 km/h
174 27-01-2022 14:25:00 4.1 C 5.76 g/m*3 -0.55 C 24.1 km/h
175 27-01-2022 14:30:00 4.1 C 5.76 g/m*3 0.02 C 19.3 km/h
Sensor: Nr:Datum:Temp:Abs-Feuchte:Windchill:Wind:
Aussen-T/F 176 27-01-2022 14:35:00 4.2 C 5.86 g/m*3 -0.05 C 20.9 km/h
177 27-01-2022 14:40:00 4.2 C 5.86 g/m*3 -0.42 C 24.1 km/h
178 27-01-2022 14:45:00 4.2 C 5.86 g/m*3 -0.24 C 22.5 km/h
179 27-01-2022 14:50:00 4.2 C 5.86 g/m*3 -0.05 C 20.9 km/h
180 27-01-2022 14:55:00 4.2 C 5.86 g/m*3 0.15 C 19.3 km/h
181 27-01-2022 15:00:00 4.2 C 5.86 g/m*3 0.15 C 19.3 km/h
182 27-01-2022 15:05:00 4.2 C 5.86 g/m*3 0.15 C 19.3 km/h
183 27-01-2022 15:10:00 4.3 C 5.9 g/m*3 0.07 C 20.9 km/h
184 27-01-2022 15:15:00 4.3 C 5.9 g/m*3 -0.29 C 24.1 km/h
185 27-01-2022 15:20:00 4.4 C 5.94 g/m*3 -0.49 C 27.4 km/h
186 27-01-2022 15:25:00 4.4 C 5.94 g/m*3 0.61 C 17.7 km/h
187 27-01-2022 15:30:00 4.3 C 5.9 g/m*3 0.27 C 19.3 km/h
188 27-01-2022 15:35:00 4.3 C 5.9 g/m*3 0.07 C 20.9 km/h
189 27-01-2022 15:40:00 4.3 C 5.9 g/m*3 -0.29 C 24.1 km/h
190 27-01-2022 15:45:00 4.3 C 5.84 g/m*3 -0.11 C 22.5 km/h
191 27-01-2022 15:50:00 4.3 C 5.84 g/m*3 -0.29 C 24.1 km/h
192 27-01-2022 15:55:00 4.4 C 5.88 g/m*3 0.01 C 22.5 km/h
193 27-01-2022 16:00:00 4.4 C 5.88 g/m*3 -0.33 C 25.7 km/h
194 27-01-2022 16:05:00 4.4 C 5.88 g/m*3 -0.33 C 25.7 km/h
195 27-01-2022 16:10:00 4.4 C 5.88 g/m*3 0.01 C 22.5 km/h
196 27-01-2022 16:15:00 4.3 C 5.84 g/m*3 -0.29 C 24.1 km/h
197 27-01-2022 16:20:00 4.3 C 5.84 g/m*3 -0.29 C 24.1 km/h
198 27-01-2022 16:25:00 4.3 C 5.84 g/m*3 -0.29 C 24.1 km/h
199 27-01-2022 16:30:00 4.3 C 5.9 g/m*3 -0.11 C 22.5 km/h
200 27-01-2022 16:35:00 4.3 C 5.9 g/m*3 0.27 C 19.3 km/h
Sensor: Nr:Datum:Temp:Abs-Feuchte:Windchill:Wind:
Aussen-T/F 201 27-01-2022 16:40:00 4.3 C 5.9 g/m*3 -0.46 C 25.7 km/h
202 27-01-2022 16:45:00 4.3 C 5.9 g/m*3 -0.77 C 29 km/h
203 27-01-2022 16:50:00 4.3 C 5.84 g/m*3 -0.29 C 24.1 km/h
204 27-01-2022 16:55:00 4.3 C 5.84 g/m*3 -0.62 C 27.4 km/h
205 27-01-2022 17:00:00 4.3 C 5.84 g/m*3 -0.46 C 25.7 km/h
206 27-01-2022 17:05:00 4.3 C 5.84 g/m*3 -0.11 C 22.5 km/h
207 27-01-2022 17:10:00 4.3 C 5.9 g/m*3 -0.46 C 25.7 km/h
208 27-01-2022 17:15:00 4.2 C 5.86 g/m*3 0.59 C 16.1 km/h
209 27-01-2022 17:20:00 4.2 C 5.86 g/m*3 -0.05 C 20.9 km/h
210 27-01-2022 17:25:00 4.2 C 5.86 g/m*3 -0.58 C 25.7 km/h
211 27-01-2022 17:30:00 4.2 C 5.86 g/m*3 -0.24 C 22.5 km/h
212 27-01-2022 17:35:00 4.3 C 5.9 g/m*3 0.27 C 19.3 km/h
213 27-01-2022 17:40:00 4.3 C 5.9 g/m*3 -0.46 C 25.7 km/h
214 27-01-2022 17:45:00 4.3 C 5.9 g/m*3 0.07 C 20.9 km/h
215 27-01-2022 17:50:00 4.3 C 5.9 g/m*3 0.27 C 19.3 km/h
216 27-01-2022 17:55:00 4.3 C 5.9 g/m*3 -0.11 C 22.5 km/h
217 27-01-2022 18:00:00 4.3 C 5.9 g/m*3 -0.29 C 24.1 km/h
218 27-01-2022 18:05:00 4.3 C 5.9 g/m*3 -0.46 C 25.7 km/h
219 27-01-2022 18:10:00 4.4 C 5.94 g/m*3 0.61 C 17.7 km/h
220 27-01-2022 18:15:00 4.4 C 5.94 g/m*3 0.2 C 20.9 km/h
221 27-01-2022 18:20:00 4.4 C 5.94 g/m*3 0.4 C 19.3 km/h
222 27-01-2022 18:25:00 4.4 C 5.94 g/m*3 0.4 C 19.3 km/h
223 27-01-2022 18:30:00 4.4 C 5.94 g/m*3 0.01 C 22.5 km/h
224 27-01-2022 18:35:00 4.4 C 5.94 g/m*3 0.61 C 17.7 km/h
225 27-01-2022 18:40:00 4.4 C 5.88 g/m*3 0.61 C 17.7 km/h
Sensor: Nr:Datum:Temp:Abs-Feuchte:Windchill:Wind:
Aussen-T/F 226 27-01-2022 18:45:00 4.4 C 5.88 g/m*3 0.4 C 19.3 km/h
227 27-01-2022 18:50:00 4.4 C 5.88 g/m*3 0.84 C 16.1 km/h
228 27-01-2022 18:55:00 4.4 C 5.88 g/m*3 0.84 C 16.1 km/h
229 27-01-2022 19:00:00 4.4 C 5.94 g/m*3 1.67 C 11.3 km/h
230 27-01-2022 19:05:00 4.4 C 5.94 g/m*3 1.09 C 14.5 km/h
231 27-01-2022 19:10:00 4.4 C 5.94 g/m*3 0.84 C 16.1 km/h
232 27-01-2022 19:15:00 4.5 C 5.98 g/m*3 0.52 C 19.3 km/h
233 27-01-2022 19:20:00 4.5 C 5.98 g/m*3 0.74 C 17.7 km/h
234 27-01-2022 19:25:00 4.4 C 6.01 g/m*3 -0.16 C 24.1 km/h
235 27-01-2022 19:30:00 4.4 C 6.01 g/m*3 -0.16 C 24.1 km/h
236 27-01-2022 19:35:00 4.3 C 5.97 g/m*3 0.27 C 19.3 km/h
237 27-01-2022 19:40:00 4.3 C 6.03 g/m*3 0.27 C 19.3 km/h
238 27-01-2022 19:45:00 4.3 C 6.03 g/m*3 -0.11 C 22.5 km/h
239 27-01-2022 19:50:00 4.2 C 5.99 g/m*3 0.15 C 19.3 km/h
240 27-01-2022 19:55:00 4.2 C 5.99 g/m*3 0.84 C 14.5 km/h
241 27-01-2022 20:00:00 4.2 C 5.99 g/m*3 1.12 C 12.9 km/h
242 27-01-2022 20:05:00 4.2 C 5.99 g/m*3 0.59 C 16.1 km/h
243 27-01-2022 20:10:00 4.2 C 5.99 g/m*3 0.36 C 17.7 km/h
244 27-01-2022 20:15:00 4.3 C 6.03 g/m*3 0.72 C 16.1 km/h
245 27-01-2022 20:20:00 4.3 C 6.03 g/m*3 0.97 C 14.5 km/h
246 27-01-2022 20:25:00 4.3 C 6.03 g/m*3 0.07 C 20.9 km/h
247 27-01-2022 20:30:00 4.3 C 6.03 g/m*3 -0.29 C 24.1 km/h
248 27-01-2022 20:35:00 4.3 C 6.03 g/m*3 0.07 C 20.9 km/h
249 27-01-2022 20:40:00 4.3 C 6.03 g/m*3 1.24 C 12.9 km/h
250 27-01-2022 20:45:00 4.3 C 6.03 g/m*3 0.72 C 16.1 km/h
Sensor: Nr:Datum:Temp:Abs-Feuchte:Windchill:Wind:
Aussen-T/F 251 27-01-2022 20:50:00 4.4 C 6.07 g/m*3 1.09 C 14.5 km/h
252 27-01-2022 20:55:00 4.4 C 6.07 g/m*3 0.61 C 17.7 km/h
253 27-01-2022 21:00:00 4.4 C 6.07 g/m*3 1.67 C 11.3 km/h
254 27-01-2022 21:05:00 4.4 C 6.07 g/m*3 0.84 C 16.1 km/h
255 27-01-2022 21:10:00 4.5 C 6.05 g/m*3 0.96 C 16.1 km/h
256 27-01-2022 21:15:00 4.5 C 6.05 g/m*3 1.21 C 14.5 km/h
257 27-01-2022 21:20:00 4.6 C 6.09 g/m*3 1.61 C 12.9 km/h
258 27-01-2022 21:25:00 4.6 C 6.09 g/m*3 1.34 C 14.5 km/h
259 27-01-2022 21:30:00 4.7 C 6.13 g/m*3 2.76 C 8.1 km/h
260 27-01-2022 21:35:00 4.7 C 6.13 g/m*3 2.76 C 8.1 km/h
261 27-01-2022 21:40:00 4.8 C 6.17 g/m*3 2.15 C 11.3 km/h
262 27-01-2022 21:45:00 4.9 C 6.21 g/m*3 1.7 C 14.5 km/h
263 27-01-2022 21:50:00 5.1 C 6.29 g/m*3 2.22 C 12.9 km/h
264 27-01-2022 21:55:00 5.1 C 6.22 g/m*3 2.51 C 11.3 km/h
265 27-01-2022 22:00:00 5.1 C 6.22 g/m*3 3.71 C 6.4 km/h
266 27-01-2022 22:05:00 5.1 C 6.22 g/m*3 2.84 C 9.7 km/h
267 27-01-2022 22:10:00 5.1 C 6.16 g/m*3 2.22 C 12.9 km/h
268 27-01-2022 22:15:00 5.1 C 6.16 g/m*3 3.71 C 6.4 km/h
269 27-01-2022 22:20:00 5.1 C 6.16 g/m*3 3.71 C 6.4 km/h
270 27-01-2022 22:25:00 5.1 C 6.16 g/m*3 2.84 C 9.7 km/h
271 27-01-2022 22:30:00 5.1 C 6.16 g/m*3 3.71 C 6.4 km/h
272 27-01-2022 22:35:00 5.3 C 6.24 g/m*3 2.75 C 11.3 km/h
273 27-01-2022 22:40:00 5.4 C 6.21 g/m*3 2.87 C 11.3 km/h
274 27-01-2022 22:45:00 5.7 C 6.33 g/m*3 3.23 C 11.3 km/h
275 27-01-2022 22:50:00 5.9 C 6.35 g/m*3 3.48 C 11.3 km/h
Sensor: Nr:Datum:Temp:Abs-Feuchte:Windchill:Wind:
Aussen-T/F 276 27-01-2022 22:55:00 6.1 C 6.36 g/m*3 3.72 C 11.3 km/h
277 27-01-2022 23:00:00 6.2 C 6.4 g/m*3 3.84 C 11.3 km/h
278 27-01-2022 23:05:00 6.3 C 6.37 g/m*3 4.27 C 9.7 km/h
279 27-01-2022 23:10:00 6.6 C 6.42 g/m*3 4.04 C 12.9 km/h
280 27-01-2022 23:15:00 6.8 C 6.42 g/m*3 4.04 C 14.5 km/h
281 27-01-2022 23:20:00 6.9 C 6.47 g/m*3 4.68 C 11.3 km/h
282 27-01-2022 23:25:00 7 C 6.43 g/m*3 4.8 C 11.3 km/h
283 27-01-2022 23:30:00 7.1 C 6.47 g/m*3 3.8 C 19.3 km/h
284 27-01-2022 23:35:00 7.2 C 6.44 g/m*3 5.35 C 9.7 km/h
285 27-01-2022 23:40:00 7.2 C 6.44 g/m*3 5.69 C 8.1 km/h
286 27-01-2022 23:45:00 7.1 C 6.4 g/m*3 4.92 C 11.3 km/h
287 27-01-2022 23:50:00 7.1 C 6.4 g/m*3 4.65 C 12.9 km/h
288 27-01-2022 23:55:00 7.1 C 6.4 g/m*3 4.19 C 16.1 km/h
289 28-01-2022 00:00:00 7.1 C 6.4 g/m*3 4.41 C 14.5 km/h
290 28-01-2022 00:05:00 7.1 C 6.32 g/m*3 4.41 C 14.5 km/h
291 28-01-2022 00:10:00 7.1 C 6.32 g/m*3 3.98 C 17.7 km/h
292 28-01-2022 00:15:00 7.1 C 6.32 g/m*3 5.23 C 9.7 km/h
293 28-01-2022 00:20:00 7 C 6.28 g/m*3 4.8 C 11.3 km/h
294 28-01-2022 00:25:00 7.1 C 6.32 g/m*3 5.23 C 9.7 km/h
295 28-01-2022 00:30:00 7 C 6.28 g/m*3 4.53 C 12.9 km/h
296 28-01-2022 00:35:00 7 C 6.28 g/m*3 4.29 C 14.5 km/h
297 28-01-2022 00:40:00 6.9 C 6.24 g/m*3 3.94 C 16.1 km/h
298 28-01-2022 00:45:00 7 C 6.28 g/m*3 4.8 C 11.3 km/h
299 28-01-2022 00:50:00 7 C 6.2 g/m*3 4.29 C 14.5 km/h
300 28-01-2022 00:55:00 7 C 6.2 g/m*3 3.86 C 17.7 km/h
Sensor: Nr:Datum:Temp:Abs-Feuchte:Windchill:Wind:
Aussen-T/F 301 28-01-2022 01:00:00 6.9 C 6.16 g/m*3 3.54 C 19.3 km/h
302 28-01-2022 01:05:00 6.9 C 6.16 g/m*3 3.94 C 16.1 km/h
303 28-01-2022 01:10:00 6.9 C 6.16 g/m*3 4.68 C 11.3 km/h
304 28-01-2022 01:15:00 6.8 C 6.12 g/m*3 4.29 C 12.9 km/h
305 28-01-2022 01:20:00 6.8 C 6.12 g/m*3 4.56 C 11.3 km/h
306 28-01-2022 01:25:00 6.7 C 6.15 g/m*3 4.17 C 12.9 km/h
307 28-01-2022 01:30:00 6.7 C 6.15 g/m*3 4.44 C 11.3 km/h
308 28-01-2022 01:35:00 6.7 C 6.15 g/m*3 4.75 C 9.7 km/h
309 28-01-2022 01:40:00 6.7 C 6.15 g/m*3 3.29 C 19.3 km/h
310 28-01-2022 01:45:00 6.7 C 6.31 g/m*3 2.94 C 22.5 km/h
311 28-01-2022 01:50:00 6.4 C 6.33 g/m*3 2.56 C 22.5 km/h
312 28-01-2022 01:55:00 6.2 C 6.4 g/m*3 4.52 C 8.1 km/h
313 28-01-2022 02:00:00 6 C 6.39 g/m*3 3.06 C 14.5 km/h
314 28-01-2022 02:05:00 5.8 C 6.38 g/m*3 4.52 C 6.4 km/h
315 28-01-2022 02:10:00 5.6 C 6.29 g/m*3 4.29 C 6.4 km/h
316 28-01-2022 02:15:00 5.3 C 6.17 g/m*3 5.3 C 3.2 km/h
317 28-01-2022 02:20:00 5.1 C 6.16 g/m*3 2.51 C 11.3 km/h
318 28-01-2022 02:25:00 4.9 C 6.14 g/m*3 4.9 C 4.8 km/h
319 28-01-2022 02:30:00 4.8 C 6.17 g/m*3 4.8 C 4.8 km/h
320 28-01-2022 02:35:00 4.8 C 6.17 g/m*3 2.87 C 8.1 km/h
321 28-01-2022 02:40:00 4.7 C 6.13 g/m*3 4.7 C 3.2 km/h
322 28-01-2022 02:45:00 4.7 C 6.19 g/m*3 2.37 C 9.7 km/h
323 28-01-2022 02:50:00 4.8 C 6.24 g/m*3 2.87 C 8.1 km/h
324 28-01-2022 02:55:00 4.8 C 6.17 g/m*3 2.15 C 11.3 km/h
325 28-01-2022 03:00:00 4.9 C 6.21 g/m*3 2.61 C 9.7 km/h
Sensor: Nr:Datum:Temp:Abs-Feuchte:Windchill:Wind:
Aussen-T/F 326 28-01-2022 03:05:00 5.1 C 6.29 g/m*3 1.49 C 17.7 km/h
327 28-01-2022 03:10:00 5.2 C 6.27 g/m*3 2.07 C 14.5 km/h
328 28-01-2022 03:15:00 5.2 C 6.2 g/m*3 2.96 C 9.7 km/h
329 28-01-2022 03:20:00 5.3 C 6.24 g/m*3 1.53 C 19.3 km/h
330 28-01-2022 03:25:00 5.3 C 6.17 g/m*3 2.46 C 12.9 km/h
331 28-01-2022 03:30:00 5.4 C 6.14 g/m*3 2.58 C 12.9 km/h
332 28-01-2022 03:35:00 5.4 C 6.14 g/m*3 3.2 C 9.7 km/h
333 28-01-2022 03:40:00 5.6 C 6.22 g/m*3 2.83 C 12.9 km/h
334 28-01-2022 03:45:00 5.6 C 6.15 g/m*3 2.83 C 12.9 km/h
335 28-01-2022 03:50:00 5.6 C 6.15 g/m*3 3.11 C 11.3 km/h
336 28-01-2022 03:55:00 5.7 C 6.19 g/m*3 3.93 C 8.1 km/h
337 28-01-2022 04:00:00 5.6 C 6.15 g/m*3 2.33 C 16.1 km/h
338 28-01-2022 04:05:00 5.6 C 6.15 g/m*3 2.83 C 12.9 km/h
339 28-01-2022 04:10:00 5.6 C 6.15 g/m*3 3.81 C 8.1 km/h
340 28-01-2022 04:15:00 5.5 C 6.11 g/m*3 3.7 C 8.1 km/h
341 28-01-2022 04:20:00 5.4 C 6.07 g/m*3 4.06 C 6.4 km/h
342 28-01-2022 04:25:00 5.4 C 6 g/m*3 2.58 C 12.9 km/h
343 28-01-2022 04:30:00 5.4 C 6 g/m*3 4.06 C 6.4 km/h
344 28-01-2022 04:35:00 5.3 C 5.96 g/m*3 3.46 C 8.1 km/h
345 28-01-2022 04:40:00 5.2 C 5.92 g/m*3 3.34 C 8.1 km/h
346 28-01-2022 04:45:00 5.2 C 5.92 g/m*3 3.34 C 8.1 km/h
347 28-01-2022 04:50:00 5.1 C 5.88 g/m*3 2.51 C 11.3 km/h
348 28-01-2022 04:55:00 4.9 C 5.81 g/m*3 2.99 C 8.1 km/h
349 28-01-2022 05:00:00 4.8 C 5.77 g/m*3 4.8 C 4.8 km/h
350 28-01-2022 05:05:00 4.7 C 5.8 g/m*3 2.76 C 8.1 km/h
Sensor: Nr:Datum:Temp:Abs-Feuchte:Windchill:Wind:
Aussen-T/F 351 28-01-2022 05:10:00 4.6 C 5.76 g/m*3 2.25 C 9.7 km/h
352 28-01-2022 05:15:00 4.6 C 5.76 g/m*3 2.64 C 8.1 km/h
353 28-01-2022 05:20:00 4.6 C 5.82 g/m*3 3.13 C 6.4 km/h
354 28-01-2022 05:25:00 4.5 C 5.78 g/m*3 4.5 C 4.8 km/h
355 28-01-2022 05:30:00 4.4 C 5.75 g/m*3 1.67 C 11.3 km/h
356 28-01-2022 05:35:00 4.4 C 5.75 g/m*3 2.01 C 9.7 km/h
357 28-01-2022 05:40:00 4.5 C 5.78 g/m*3 3.02 C 6.4 km/h
358 28-01-2022 05:45:00 4.6 C 5.82 g/m*3 1.61 C 12.9 km/h
359 28-01-2022 05:50:00 4.7 C 5.8 g/m*3 0.99 C 17.7 km/h
360 28-01-2022 05:55:00 4.8 C 5.83 g/m*3 2.49 C 9.7 km/h
361 28-01-2022 06:00:00 4.8 C 5.83 g/m*3 2.15 C 11.3 km/h
362 28-01-2022 06:05:00 4.8 C 5.83 g/m*3 2.15 C 11.3 km/h
363 28-01-2022 06:10:00 4.8 C 5.83 g/m*3 2.49 C 9.7 km/h
364 28-01-2022 06:15:00 4.8 C 5.9 g/m*3 2.15 C 11.3 km/h
365 28-01-2022 06:20:00 4.9 C 5.87 g/m*3 2.99 C 8.1 km/h
366 28-01-2022 06:25:00 4.9 C 5.87 g/m*3 1.97 C 12.9 km/h
367 28-01-2022 06:30:00 4.9 C 5.87 g/m*3 2.27 C 11.3 km/h
368 28-01-2022 06:35:00 4.9 C 5.87 g/m*3 3.48 C 6.4 km/h
369 28-01-2022 06:40:00 4.8 C 5.83 g/m*3 2.15 C 11.3 km/h
370 28-01-2022 06:45:00 4.8 C 5.9 g/m*3 1.85 C 12.9 km/h
371 28-01-2022 06:50:00 4.7 C 5.86 g/m*3 2.76 C 8.1 km/h
372 28-01-2022 06:55:00 4.7 C 5.86 g/m*3 1.73 C 12.9 km/h
373 28-01-2022 07:00:00 4.7 C 5.86 g/m*3 2.76 C 8.1 km/h
374 28-01-2022 07:05:00 4.6 C 5.82 g/m*3 3.13 C 6.4 km/h
375 28-01-2022 07:10:00 4.6 C 5.82 g/m*3 3.13 C 6.4 km/h
Sensor: Nr:Datum:Temp:Abs-Feuchte:Windchill:Wind:
Aussen-T/F 376 28-01-2022 07:15:00 4.4 C 5.81 g/m*3 2.4 C 8.1 km/h
377 28-01-2022 07:20:00 4.4 C 5.81 g/m*3 2.4 C 8.1 km/h
378 28-01-2022 07:25:00 4.3 C 5.77 g/m*3 1.55 C 11.3 km/h
379 28-01-2022 07:30:00 4.3 C 5.77 g/m*3 4.3 C 1.6 km/h
380 28-01-2022 07:35:00 4.2 C 5.73 g/m*3 4.2 C 3.2 km/h
381 28-01-2022 07:40:00 4.1 C 5.7 g/m*3 2.05 C 8.1 km/h
382 28-01-2022 07:45:00 4.1 C 5.76 g/m*3 1 C 12.9 km/h
383 28-01-2022 07:50:00 4.2 C 5.8 g/m*3 1.43 C 11.3 km/h
384 28-01-2022 07:55:00 4.4 C 5.88 g/m*3 1.67 C 11.3 km/h
385 28-01-2022 08:00:00 4.6 C 5.96 g/m*3 1.91 C 11.3 km/h
386 28-01-2022 08:05:00 4.7 C 5.93 g/m*3 4.7 C 1.6 km/h
387 28-01-2022 08:10:00 4.7 C 5.93 g/m*3 3.25 C 6.4 km/h
388 28-01-2022 08:15:00 4.8 C 5.97 g/m*3 2.49 C 9.7 km/h
389 28-01-2022 08:20:00 4.9 C 6.01 g/m*3 4.9 C 4.8 km/h
390 28-01-2022 08:25:00 4.9 C 5.94 g/m*3 2.61 C 9.7 km/h
391 28-01-2022 08:30:00 5 C 5.98 g/m*3 1.83 C 14.5 km/h
392 28-01-2022 08:35:00 5.1 C 6.02 g/m*3 3.23 C 8.1 km/h
393 28-01-2022 08:40:00 5.1 C 5.95 g/m*3 3.23 C 8.1 km/h
394 28-01-2022 08:45:00 5.1 C 5.95 g/m*3 2.51 C 11.3 km/h
395 28-01-2022 08:50:00 5.1 C 6.02 g/m*3 2.51 C 11.3 km/h
396 28-01-2022 08:55:00 5.2 C 6.06 g/m*3 2.34 C 12.9 km/h
397 28-01-2022 09:00:00 5.2 C 5.99 g/m*3 3.82 C 6.4 km/h
398 28-01-2022 09:05:00 5.2 C 5.99 g/m*3 3.34 C 8.1 km/h
399 28-01-2022 09:10:00 5.2 C 5.99 g/m*3 3.34 C 8.1 km/h
400 28-01-2022 09:15:00 5.2 C 5.99 g/m*3 3.34 C 8.1 km/h
Sensor: Nr:Datum:Temp:Abs-Feuchte:Windchill:Wind:
Aussen-T/F 401 28-01-2022 09:20:00 5.2 C 5.99 g/m*3 3.82 C 6.4 km/h
402 28-01-2022 09:25:00 5.1 C 5.95 g/m*3 5.1 C 4.8 km/h
403 28-01-2022 09:30:00 5.1 C 6.02 g/m*3 5.1 C 3.2 km/h
404 28-01-2022 09:35:00 5.2 C 5.99 g/m*3 2.63 C 11.3 km/h
405 28-01-2022 09:40:00 5.2 C 5.99 g/m*3 5.2 C 4.8 km/h
406 28-01-2022 09:45:00 5.2 C 5.99 g/m*3 2.96 C 9.7 km/h
407 28-01-2022 09:50:00 5.3 C 6.03 g/m*3 3.94 C 6.4 km/h
408 28-01-2022 09:55:00 5.3 C 6.03 g/m*3 5.3 C 0 km/h
409 28-01-2022 10:00:00 5.3 C 6.03 g/m*3 5.3 C 0 km/h
410 28-01-2022 10:05:00 5.3 C 6.03 g/m*3 3.08 C 9.7 km/h
411 28-01-2022 10:10:00 5.3 C 6.03 g/m*3 3.94 C 6.4 km/h
412 28-01-2022 10:15:00 5.4 C 6.07 g/m*3 3.58 C 8.1 km/h
413 28-01-2022 10:20:00 5.5 C 6.11 g/m*3 3.7 C 8.1 km/h
414 28-01-2022 10:25:00 5.6 C 6.08 g/m*3 3.11 C 11.3 km/h
415 28-01-2022 10:30:00 5.7 C 6.19 g/m*3 3.23 C 11.3 km/h
416 28-01-2022 10:35:00 5.7 C 6.12 g/m*3 3.93 C 8.1 km/h
417 28-01-2022 10:40:00 5.8 C 6.16 g/m*3 3.36 C 11.3 km/h
418 28-01-2022 10:45:00 5.9 C 6.2 g/m*3 3.48 C 11.3 km/h
419 28-01-2022 10:50:00 6 C 6.24 g/m*3 6 C 4.8 km/h
420 28-01-2022 10:55:00 6.1 C 6.21 g/m*3 2.54 C 19.3 km/h
421 28-01-2022 11:00:00 6.1 C 6.21 g/m*3 3.72 C 11.3 km/h
422 28-01-2022 11:05:00 6.2 C 6.25 g/m*3 3.84 C 11.3 km/h
423 28-01-2022 11:10:00 6.2 C 6.25 g/m*3 3.84 C 11.3 km/h
424 28-01-2022 11:15:00 6.3 C 6.22 g/m*3 4.27 C 9.7 km/h
425 28-01-2022 11:20:00 6.3 C 6.14 g/m*3 3.96 C 11.3 km/h
Sensor: Nr:Datum:Temp:Abs-Feuchte:Windchill:Wind:
Aussen-T/F 426 28-01-2022 11:25:00 6.3 C 6.14 g/m*3 3.68 C 12.9 km/h
427 28-01-2022 11:30:00 6.4 C 6.18 g/m*3 6.4 C 4.8 km/h
428 28-01-2022 11:35:00 6.4 C 6.18 g/m*3 4.75 C 8.1 km/h
429 28-01-2022 11:40:00 6.5 C 6.15 g/m*3 5.33 C 6.4 km/h
430 28-01-2022 11:45:00 6.6 C 6.11 g/m*3 6.6 C 3.2 km/h
431 28-01-2022 11:50:00 6.6 C 6.11 g/m*3 4.63 C 9.7 km/h
432 28-01-2022 11:55:00 6.6 C 6.11 g/m*3 3.79 C 14.5 km/h
433 28-01-2022 12:00:00 6.5 C 6 g/m*3 4.2 C 11.3 km/h
434 28-01-2022 12:05:00 6.6 C 5.96 g/m*3 4.63 C 9.7 km/h
435 28-01-2022 12:10:00 6.6 C 6.04 g/m*3 4.99 C 8.1 km/h
436 28-01-2022 12:15:00 6.6 C 5.96 g/m*3 6.6 C 4.8 km/h
437 28-01-2022 12:20:00 6.6 C 5.96 g/m*3 6.6 C 4.8 km/h
438 28-01-2022 12:25:00 6.7 C 6 g/m*3 6.7 C 4.8 km/h
439 28-01-2022 12:30:00 6.7 C 6 g/m*3 6.7 C 4.8 km/h
440 28-01-2022 12:35:00 6.8 C 5.89 g/m*3 5.22 C 8.1 km/h
441 28-01-2022 12:40:00 6.9 C 5.77 g/m*3 4.16 C 14.5 km/h
442 28-01-2022 12:45:00 6.9 C 5.77 g/m*3 5.79 C 6.4 km/h
443 28-01-2022 12:50:00 7.1 C 5.77 g/m*3 5.58 C 8.1 km/h
444 28-01-2022 12:55:00 7.1 C 5.77 g/m*3 4.65 C 12.9 km/h
445 28-01-2022 13:00:00 7.1 C 5.77 g/m*3 4.92 C 11.3 km/h
446 28-01-2022 13:05:00 7.1 C 5.85 g/m*3 4.92 C 11.3 km/h
447 28-01-2022 13:10:00 7.1 C 5.93 g/m*3 4.65 C 12.9 km/h
448 28-01-2022 13:15:00 7 C 5.81 g/m*3 3.86 C 17.7 km/h
449 28-01-2022 13:20:00 6.9 C 5.7 g/m*3 4.68 C 11.3 km/h
450 28-01-2022 13:25:00 6.8 C 5.74 g/m*3 5.22 C 8.1 km/h
Sensor: Nr:Datum:Temp:Abs-Feuchte:Windchill:Wind:
Aussen-T/F 451 28-01-2022 13:30:00 6.8 C 5.74 g/m*3 5.67 C 6.4 km/h
452 28-01-2022 13:35:00 6.7 C 5.77 g/m*3 4.44 C 11.3 km/h
453 28-01-2022 13:40:00 6.7 C 5.85 g/m*3 6.7 C 1.6 km/h
454 28-01-2022 13:45:00 6.6 C 5.81 g/m*3 4.04 C 12.9 km/h
455 28-01-2022 13:50:00 6.7 C 5.77 g/m*3 4.44 C 11.3 km/h
456 28-01-2022 13:55:00 6.9 C 5.85 g/m*3 5.79 C 6.4 km/h
457 28-01-2022 14:00:00 7.1 C 5.85 g/m*3 5.23 C 9.7 km/h
458 28-01-2022 14:05:00 7.2 C 5.73 g/m*3 5.04 C 11.3 km/h
459 28-01-2022 14:10:00 7.3 C 5.61 g/m*3 4.66 C 14.5 km/h
460 28-01-2022 14:15:00 7.3 C 5.53 g/m*3 4.05 C 19.3 km/h
461 28-01-2022 14:20:00 7.3 C 5.53 g/m*3 5.16 C 11.3 km/h
462 28-01-2022 14:25:00 7.4 C 5.65 g/m*3 4.78 C 14.5 km/h
463 28-01-2022 14:30:00 7.5 C 5.6 g/m*3 4.9 C 14.5 km/h
464 28-01-2022 14:35:00 7.6 C 5.64 g/m*3 5.02 C 14.5 km/h
465 28-01-2022 14:40:00 7.7 C 5.68 g/m*3 5.15 C 14.5 km/h
466 28-01-2022 14:45:00 7.8 C 5.71 g/m*3 5.77 C 11.3 km/h
467 28-01-2022 14:50:00 7.7 C 5.68 g/m*3 5.38 C 12.9 km/h
468 28-01-2022 14:55:00 7.6 C 5.72 g/m*3 5.82 C 9.7 km/h
469 28-01-2022 15:00:00 7.6 C 5.72 g/m*3 5.26 C 12.9 km/h
470 28-01-2022 15:05:00 7.5 C 5.68 g/m*3 5.41 C 11.3 km/h
471 28-01-2022 15:10:00 7.5 C 5.68 g/m*3 5.41 C 11.3 km/h
472 28-01-2022 15:15:00 7.4 C 5.73 g/m*3 5.58 C 9.7 km/h
473 28-01-2022 15:20:00 7.5 C 5.76 g/m*3 6.05 C 8.1 km/h
474 28-01-2022 15:25:00 7.4 C 5.65 g/m*3 4.56 C 16.1 km/h
475 28-01-2022 15:30:00 7.4 C 5.73 g/m*3 5.93 C 8.1 km/h
Sensor: Nr:Datum:Temp:Abs-Feuchte:Windchill:Wind:
Aussen-T/F 476 28-01-2022 15:35:00 7.4 C 5.73 g/m*3 6.37 C 6.4 km/h
477 28-01-2022 15:40:00 7.4 C 5.73 g/m*3 5.28 C 11.3 km/h
478 28-01-2022 15:45:00 7.3 C 5.61 g/m*3 5.47 C 9.7 km/h
479 28-01-2022 15:50:00 7.3 C 5.61 g/m*3 6.25 C 6.4 km/h
480 28-01-2022 15:55:00 7.3 C 5.69 g/m*3 5.47 C 9.7 km/h
481 28-01-2022 16:00:00 7.2 C 5.65 g/m*3 5.35 C 9.7 km/h
482 28-01-2022 16:05:00 7.2 C 5.65 g/m*3 5.35 C 9.7 km/h
483 28-01-2022 16:10:00 7.2 C 5.73 g/m*3 5.35 C 9.7 km/h
484 28-01-2022 16:15:00 7.1 C 5.77 g/m*3 7.1 C 4.8 km/h
485 28-01-2022 16:20:00 7 C 5.81 g/m*3 7 C 3.2 km/h
486 28-01-2022 16:25:00 6.8 C 5.81 g/m*3 6.8 C 3.2 km/h
487 28-01-2022 16:30:00 6.6 C 5.74 g/m*3 6.6 C 1.6 km/h
488 28-01-2022 16:35:00 6.2 C 5.74 g/m*3 6.2 C 3.2 km/h
489 28-01-2022 16:40:00 5.9 C 5.7 g/m*3 5.9 C 1.6 km/h
490 28-01-2022 16:45:00 5.6 C 5.59 g/m*3 5.6 C 3.2 km/h
491 28-01-2022 16:50:00 5.3 C 5.61 g/m*3 5.3 C 4.8 km/h
492 28-01-2022 16:55:00 5 C 5.57 g/m*3 5 C 3.2 km/h
493 28-01-2022 17:00:00 4.8 C 5.57 g/m*3 4.8 C 4.8 km/h
494 28-01-2022 17:05:00 4.6 C 5.56 g/m*3 4.6 C 4.8 km/h
495 28-01-2022 17:10:00 4.3 C 5.45 g/m*3 4.3 C 3.2 km/h
496 28-01-2022 17:15:00 4.2 C 5.48 g/m*3 4.2 C 4.8 km/h
497 28-01-2022 17:20:00 4.1 C 5.44 g/m*3 4.1 C 3.2 km/h
498 28-01-2022 17:25:00 3.9 C 5.43 g/m*3 3.9 C 4.8 km/h
499 28-01-2022 17:30:00 3.8 C 5.46 g/m*3 3.8 C 4.8 km/h
500 28-01-2022 17:35:00 3.7 C 5.42 g/m*3 3.7 C 4.8 km/h
Sensor: Nr:Datum:Temp:Abs-Feuchte:Windchill:Wind:
Aussen-T/F 501 28-01-2022 17:40:00 3.6 C 5.39 g/m*3 3.6 C 4.8 km/h
502 28-01-2022 17:45:00 3.5 C 5.41 g/m*3 3.5 C 1.6 km/h
503 28-01-2022 17:50:00 3.4 C 5.37 g/m*3 3.4 C 1.6 km/h
504 28-01-2022 17:55:00 3.3 C 5.34 g/m*3 3.3 C 3.2 km/h
505 28-01-2022 18:00:00 3.2 C 5.36 g/m*3 3.2 C 3.2 km/h
506 28-01-2022 18:05:00 3.2 C 5.36 g/m*3 3.2 C 0 km/h
507 28-01-2022 18:10:00 3.2 C 5.42 g/m*3 3.2 C 3.2 km/h
508 28-01-2022 18:15:00 3.2 C 5.42 g/m*3 3.2 C 1.6 km/h
509 28-01-2022 18:20:00 3.2 C 5.42 g/m*3 3.2 C 3.2 km/h
510 28-01-2022 18:25:00 3.2 C 5.42 g/m*3 3.2 C 0 km/h
511 28-01-2022 18:30:00 3.1 C 5.39 g/m*3 3.1 C 1.6 km/h
512 28-01-2022 18:35:00 3.1 C 5.45 g/m*3 3.1 C 0 km/h
513 28-01-2022 18:40:00 3.1 C 5.45 g/m*3 3.1 C 4.8 km/h
514 28-01-2022 18:45:00 3.1 C 5.45 g/m*3 3.1 C 4.8 km/h
515 28-01-2022 18:50:00 3.3 C 5.52 g/m*3 3.3 C 4.8 km/h
516 28-01-2022 18:55:00 3.4 C 5.56 g/m*3 1.75 C 6.4 km/h
517 28-01-2022 19:00:00 3.5 C 5.53 g/m*3 3.5 C 3.2 km/h
518 28-01-2022 19:05:00 3.6 C 5.57 g/m*3 1.46 C 8.1 km/h
519 28-01-2022 19:10:00 3.6 C 5.57 g/m*3 1.98 C 6.4 km/h
520 28-01-2022 19:15:00 3.7 C 5.61 g/m*3 3.7 C 3.2 km/h
521 28-01-2022 19:20:00 3.7 C 5.61 g/m*3 2.09 C 6.4 km/h
522 28-01-2022 19:25:00 3.7 C 5.61 g/m*3 3.7 C 3.2 km/h
523 28-01-2022 19:30:00 3.8 C 5.65 g/m*3 3.8 C 3.2 km/h
524 28-01-2022 19:35:00 3.8 C 5.71 g/m*3 3.8 C 4.8 km/h
525 28-01-2022 19:40:00 3.8 C 5.71 g/m*3 3.8 C 4.8 km/h
Sensor: Nr:Datum:Temp:Abs-Feuchte:Windchill:Wind:
Aussen-T/F 526 28-01-2022 19:45:00 3.9 C 5.75 g/m*3 1.82 C 8.1 km/h
527 28-01-2022 19:50:00 4.1 C 5.82 g/m*3 2.55 C 6.4 km/h
528 28-01-2022 19:55:00 4.1 C 5.82 g/m*3 1.65 C 9.7 km/h
529 28-01-2022 20:00:00 4.2 C 5.86 g/m*3 2.17 C 8.1 km/h
530 28-01-2022 20:05:00 4.3 C 5.9 g/m*3 2.29 C 8.1 km/h
531 28-01-2022 20:10:00 4.4 C 5.94 g/m*3 4.4 C 4.8 km/h
532 28-01-2022 20:15:00 4.4 C 5.94 g/m*3 2.9 C 6.4 km/h
533 28-01-2022 20:20:00 4.5 C 5.98 g/m*3 2.52 C 8.1 km/h
534 28-01-2022 20:25:00 4.6 C 6.02 g/m*3 2.25 C 9.7 km/h
535 28-01-2022 20:30:00 4.7 C 6.06 g/m*3 2.76 C 8.1 km/h
536 28-01-2022 20:35:00 4.7 C 6 g/m*3 2.76 C 8.1 km/h
537 28-01-2022 20:40:00 4.7 C 6 g/m*3 2.37 C 9.7 km/h
538 28-01-2022 20:45:00 4.8 C 6.1 g/m*3 1.85 C 12.9 km/h
539 28-01-2022 20:50:00 4.9 C 6.08 g/m*3 1.97 C 12.9 km/h
540 28-01-2022 20:55:00 5.1 C 6.16 g/m*3 1.95 C 14.5 km/h
541 28-01-2022 21:00:00 5.1 C 6.09 g/m*3 1.28 C 19.3 km/h
542 28-01-2022 21:05:00 5.2 C 6.13 g/m*3 2.34 C 12.9 km/h
543 28-01-2022 21:10:00 5.2 C 6.13 g/m*3 2.34 C 12.9 km/h
544 28-01-2022 21:15:00 5.2 C 6.06 g/m*3 1.61 C 17.7 km/h
545 28-01-2022 21:20:00 5.2 C 6.06 g/m*3 1.4 C 19.3 km/h
546 28-01-2022 21:25:00 5.3 C 6.1 g/m*3 1.74 C 17.7 km/h
547 28-01-2022 21:30:00 5.3 C 6.03 g/m*3 0.99 C 24.1 km/h
548 28-01-2022 21:35:00 5.3 C 6.03 g/m*3 1.53 C 19.3 km/h
549 28-01-2022 21:40:00 5.3 C 6.03 g/m*3 1.96 C 16.1 km/h
550 28-01-2022 21:45:00 5.3 C 6.03 g/m*3 1.74 C 17.7 km/h
Sensor: Nr:Datum:Temp:Abs-Feuchte:Windchill:Wind:
Aussen-T/F 551 28-01-2022 21:50:00 5.4 C 6.07 g/m*3 1.86 C 17.7 km/h
552 28-01-2022 21:55:00 5.4 C 6.07 g/m*3 2.32 C 14.5 km/h
553 28-01-2022 22:00:00 5.4 C 6.07 g/m*3 2.58 C 12.9 km/h
554 28-01-2022 22:05:00 5.3 C 6.03 g/m*3 2.46 C 12.9 km/h
555 28-01-2022 22:10:00 5.4 C 6.07 g/m*3 1.86 C 17.7 km/h
556 28-01-2022 22:15:00 5.4 C 6.07 g/m*3 2.87 C 11.3 km/h
557 28-01-2022 22:20:00 5.4 C 6.07 g/m*3 1.47 C 20.9 km/h
558 28-01-2022 22:25:00 5.5 C 6.11 g/m*3 2.2 C 16.1 km/h
559 28-01-2022 22:30:00 5.5 C 6.11 g/m*3 2.44 C 14.5 km/h
560 28-01-2022 22:35:00 5.6 C 6.15 g/m*3 2.11 C 17.7 km/h
561 28-01-2022 22:40:00 5.6 C 6.15 g/m*3 2.11 C 17.7 km/h
562 28-01-2022 22:45:00 5.5 C 6.11 g/m*3 1.99 C 17.7 km/h
563 28-01-2022 22:50:00 5.5 C 6.11 g/m*3 1.78 C 19.3 km/h
564 28-01-2022 22:55:00 5.4 C 6.07 g/m*3 1.29 C 22.5 km/h
565 28-01-2022 23:00:00 5.4 C 6.07 g/m*3 1.66 C 19.3 km/h
566 28-01-2022 23:05:00 5.4 C 6.07 g/m*3 1.47 C 20.9 km/h
567 28-01-2022 23:10:00 5.4 C 6.07 g/m*3 2.32 C 14.5 km/h
568 28-01-2022 23:15:00 5.4 C 6.07 g/m*3 1.86 C 17.7 km/h
569 28-01-2022 23:20:00 5.4 C 6.07 g/m*3 1.47 C 20.9 km/h
570 28-01-2022 23:25:00 5.4 C 6.07 g/m*3 1.66 C 19.3 km/h
571 28-01-2022 23:30:00 5.4 C 6.14 g/m*3 2.08 C 16.1 km/h
572 28-01-2022 23:35:00 5.4 C 6.14 g/m*3 2.08 C 16.1 km/h
573 28-01-2022 23:40:00 5.4 C 6.14 g/m*3 2.08 C 16.1 km/h
574 28-01-2022 23:45:00 5.4 C 6.14 g/m*3 1.86 C 17.7 km/h
575 28-01-2022 23:50:00 5.4 C 6.14 g/m*3 1.86 C 17.7 km/h
Sensor: Nr:Datum:Temp:Abs-Feuchte:Windchill:Wind:
Aussen-T/F 576 28-01-2022 23:55:00 5.4 C 6.14 g/m*3 2.08 C 16.1 km/h
577 29-01-2022 00:00:00 5.4 C 6.14 g/m*3 2.32 C 14.5 km/h
578 29-01-2022 00:05:00 5.4 C 6.14 g/m*3 2.58 C 12.9 km/h
579 29-01-2022 00:10:00 5.4 C 6.14 g/m*3 2.08 C 16.1 km/h
580 29-01-2022 00:15:00 5.4 C 6.14 g/m*3 1.86 C 17.7 km/h
581 29-01-2022 00:20:00 5.4 C 6.14 g/m*3 3.2 C 9.7 km/h
582 29-01-2022 00:25:00 5.4 C 6.14 g/m*3 2.58 C 12.9 km/h
583 29-01-2022 00:30:00 5.5 C 6.18 g/m*3 1.99 C 17.7 km/h
584 29-01-2022 00:35:00 5.5 C 6.18 g/m*3 2.99 C 11.3 km/h
585 29-01-2022 00:40:00 5.5 C 6.18 g/m*3 3.32 C 9.7 km/h
586 29-01-2022 00:45:00 5.5 C 6.18 g/m*3 5.5 C 4.8 km/h
587 29-01-2022 00:50:00 5.5 C 6.18 g/m*3 3.32 C 9.7 km/h
588 29-01-2022 00:55:00 5.4 C 6.14 g/m*3 3.2 C 9.7 km/h
589 29-01-2022 01:00:00 5.4 C 6.14 g/m*3 4.06 C 6.4 km/h
590 29-01-2022 01:05:00 5.4 C 6.14 g/m*3 4.06 C 6.4 km/h
591 29-01-2022 01:10:00 5.4 C 6.14 g/m*3 5.4 C 4.8 km/h
592 29-01-2022 01:15:00 5.4 C 6.14 g/m*3 5.4 C 4.8 km/h
593 29-01-2022 01:20:00 5.3 C 6.1 g/m*3 5.3 C 4.8 km/h
594 29-01-2022 01:25:00 5.3 C 6.1 g/m*3 3.46 C 8.1 km/h
595 29-01-2022 01:30:00 5.3 C 6.1 g/m*3 3.94 C 6.4 km/h
596 29-01-2022 01:35:00 5.3 C 6.1 g/m*3 5.3 C 4.8 km/h
597 29-01-2022 01:40:00 5.3 C 6.1 g/m*3 5.3 C 3.2 km/h
598 29-01-2022 01:45:00 5.3 C 6.1 g/m*3 3.08 C 9.7 km/h
599 29-01-2022 01:50:00 5.3 C 6.1 g/m*3 3.94 C 6.4 km/h
600 29-01-2022 01:55:00 5.3 C 6.1 g/m*3 3.94 C 6.4 km/h
Sensor: Nr:Datum:Temp:Abs-Feuchte:Windchill:Wind:
Aussen-T/F 601 29-01-2022 02:00:00 5.3 C 6.17 g/m*3 3.08 C 9.7 km/h
602 29-01-2022 02:05:00 5.3 C 6.1 g/m*3 5.3 C 4.8 km/h
603 29-01-2022 02:10:00 5.3 C 6.1 g/m*3 5.3 C 4.8 km/h
604 29-01-2022 02:15:00 5.3 C 6.1 g/m*3 3.46 C 8.1 km/h
605 29-01-2022 02:20:00 5.3 C 6.17 g/m*3 3.08 C 9.7 km/h
606 29-01-2022 02:25:00 5.2 C 6.13 g/m*3 2.96 C 9.7 km/h
607 29-01-2022 02:30:00 5.2 C 6.13 g/m*3 3.82 C 6.4 km/h
608 29-01-2022 02:35:00 5.2 C 6.13 g/m*3 3.34 C 8.1 km/h
609 29-01-2022 02:40:00 5.2 C 6.13 g/m*3 3.34 C 8.1 km/h
610 29-01-2022 02:45:00 5.2 C 6.13 g/m*3 2.63 C 11.3 km/h
611 29-01-2022 02:50:00 5.2 C 6.13 g/m*3 2.96 C 9.7 km/h
612 29-01-2022 02:55:00 5.1 C 6.09 g/m*3 2.22 C 12.9 km/h
613 29-01-2022 03:00:00 5.1 C 6.09 g/m*3 2.51 C 11.3 km/h
614 29-01-2022 03:05:00 5.1 C 6.16 g/m*3 1.49 C 17.7 km/h
615 29-01-2022 03:10:00 5 C 6.12 g/m*3 2.09 C 12.9 km/h
616 29-01-2022 03:15:00 5 C 6.12 g/m*3 2.09 C 12.9 km/h
617 29-01-2022 03:20:00 4.9 C 6.08 g/m*3 1.7 C 14.5 km/h
618 29-01-2022 03:25:00 4.9 C 6.14 g/m*3 1.97 C 12.9 km/h
619 29-01-2022 03:30:00 4.9 C 6.14 g/m*3 1.97 C 12.9 km/h
620 29-01-2022 03:35:00 4.8 C 6.1 g/m*3 1.58 C 14.5 km/h
621 29-01-2022 03:40:00 4.8 C 6.1 g/m*3 2.49 C 9.7 km/h
622 29-01-2022 03:45:00 4.8 C 6.1 g/m*3 2.15 C 11.3 km/h
623 29-01-2022 03:50:00 4.8 C 6.1 g/m*3 2.49 C 9.7 km/h
624 29-01-2022 03:55:00 4.8 C 6.1 g/m*3 1.58 C 14.5 km/h
625 29-01-2022 04:00:00 4.8 C 6.1 g/m*3 1.34 C 16.1 km/h
Sensor: Nr:Datum:Temp:Abs-Feuchte:Windchill:Wind:
Aussen-T/F 626 29-01-2022 04:05:00 4.8 C 6.1 g/m*3 2.49 C 9.7 km/h
627 29-01-2022 04:10:00 4.8 C 6.1 g/m*3 2.15 C 11.3 km/h
628 29-01-2022 04:15:00 4.8 C 6.1 g/m*3 2.87 C 8.1 km/h
629 29-01-2022 04:20:00 4.8 C 6.1 g/m*3 1.85 C 12.9 km/h
630 29-01-2022 04:25:00 4.8 C 6.1 g/m*3 2.15 C 11.3 km/h
631 29-01-2022 04:30:00 4.8 C 6.1 g/m*3 1.85 C 12.9 km/h
632 29-01-2022 04:35:00 4.8 C 6.1 g/m*3 1.85 C 12.9 km/h
633 29-01-2022 04:40:00 4.9 C 6.14 g/m*3 1.24 C 17.7 km/h
634 29-01-2022 04:45:00 4.9 C 6.14 g/m*3 1.7 C 14.5 km/h
635 29-01-2022 04:50:00 4.9 C 6.08 g/m*3 1.97 C 12.9 km/h
636 29-01-2022 04:55:00 4.9 C 6.08 g/m*3 1.7 C 14.5 km/h
637 29-01-2022 05:00:00 4.9 C 6.08 g/m*3 1.7 C 14.5 km/h
638 29-01-2022 05:05:00 5 C 6.12 g/m*3 1.36 C 17.7 km/h
639 29-01-2022 05:10:00 5 C 6.12 g/m*3 1.36 C 17.7 km/h
640 29-01-2022 05:15:00 5 C 6.12 g/m*3 0.96 C 20.9 km/h
641 29-01-2022 05:20:00 5 C 6.12 g/m*3 1.36 C 17.7 km/h
642 29-01-2022 05:25:00 4.9 C 6.14 g/m*3 0.83 C 20.9 km/h
643 29-01-2022 05:30:00 5 C 6.18 g/m*3 1.36 C 17.7 km/h
644 29-01-2022 05:35:00 4.9 C 6.14 g/m*3 1.24 C 17.7 km/h
645 29-01-2022 05:40:00 4.9 C 6.14 g/m*3 0.65 C 22.5 km/h
646 29-01-2022 05:45:00 4.9 C 6.14 g/m*3 0.83 C 20.9 km/h
647 29-01-2022 05:50:00 4.9 C 6.14 g/m*3 1.24 C 17.7 km/h
648 29-01-2022 05:55:00 4.9 C 6.14 g/m*3 1.03 C 19.3 km/h
649 29-01-2022 06:00:00 4.9 C 6.14 g/m*3 1.24 C 17.7 km/h
650 29-01-2022 06:05:00 4.9 C 6.14 g/m*3 1.24 C 17.7 km/h
Sensor: Nr:Datum:Temp:Abs-Feuchte:Windchill:Wind:
Aussen-T/F 651 29-01-2022 06:10:00 4.9 C 6.14 g/m*3 1.24 C 17.7 km/h
652 29-01-2022 06:15:00 4.9 C 6.14 g/m*3 1.46 C 16.1 km/h
653 29-01-2022 06:20:00 5 C 6.18 g/m*3 0.78 C 22.5 km/h
654 29-01-2022 06:25:00 5 C 6.18 g/m*3 0.96 C 20.9 km/h
655 29-01-2022 06:30:00 5 C 6.18 g/m*3 1.36 C 17.7 km/h
656 29-01-2022 06:35:00 5 C 6.18 g/m*3 1.36 C 17.7 km/h
657 29-01-2022 06:40:00 5 C 6.18 g/m*3 0.96 C 20.9 km/h
658 29-01-2022 06:45:00 5.1 C 6.22 g/m*3 1.09 C 20.9 km/h
659 29-01-2022 06:50:00 5 C 6.18 g/m*3 0.96 C 20.9 km/h
660 29-01-2022 06:55:00 5.1 C 6.22 g/m*3 1.28 C 19.3 km/h
661 29-01-2022 07:00:00 5.1 C 6.22 g/m*3 1.09 C 20.9 km/h
662 29-01-2022 07:05:00 5.1 C 6.22 g/m*3 1.95 C 14.5 km/h
663 29-01-2022 07:10:00 5.1 C 6.22 g/m*3 1.09 C 20.9 km/h
664 29-01-2022 07:15:00 5 C 6.18 g/m*3 0.61 C 24.1 km/h
665 29-01-2022 07:20:00 5.1 C 6.22 g/m*3 0.74 C 24.1 km/h
666 29-01-2022 07:25:00 5.1 C 6.22 g/m*3 1.28 C 19.3 km/h
667 29-01-2022 07:30:00 5.1 C 6.22 g/m*3 1.09 C 20.9 km/h
668 29-01-2022 07:35:00 5.1 C 6.22 g/m*3 1.49 C 17.7 km/h
669 29-01-2022 07:40:00 5.1 C 6.22 g/m*3 1.28 C 19.3 km/h
670 29-01-2022 07:45:00 5 C 6.18 g/m*3 1.15 C 19.3 km/h
671 29-01-2022 07:50:00 5 C 6.25 g/m*3 0.96 C 20.9 km/h
672 29-01-2022 07:55:00 5.1 C 6.22 g/m*3 1.49 C 17.7 km/h
673 29-01-2022 08:00:00 5 C 6.25 g/m*3 1.15 C 19.3 km/h
674 29-01-2022 08:05:00 5 C 6.25 g/m*3 1.15 C 19.3 km/h
675 29-01-2022 08:10:00 4.9 C 6.21 g/m*3 1.03 C 19.3 km/h
Sensor: Nr:Datum:Temp:Abs-Feuchte:Windchill:Wind:
Aussen-T/F 676 29-01-2022 08:15:00 4.9 C 6.21 g/m*3 1.97 C 12.9 km/h
677 29-01-2022 08:20:00 4.9 C 6.21 g/m*3 2.27 C 11.3 km/h
678 29-01-2022 08:25:00 4.9 C 6.21 g/m*3 1.03 C 19.3 km/h
679 29-01-2022 08:30:00 4.9 C 6.21 g/m*3 1.03 C 19.3 km/h
680 29-01-2022 08:35:00 4.9 C 6.21 g/m*3 1.46 C 16.1 km/h
681 29-01-2022 08:40:00 5 C 6.25 g/m*3 1.83 C 14.5 km/h
682 29-01-2022 08:45:00 5 C 6.25 g/m*3 1.36 C 17.7 km/h
683 29-01-2022 08:50:00 5 C 6.25 g/m*3 1.58 C 16.1 km/h
684 29-01-2022 08:55:00 5 C 6.25 g/m*3 1.36 C 17.7 km/h
685 29-01-2022 09:00:00 5 C 6.25 g/m*3 1.15 C 19.3 km/h
686 29-01-2022 09:05:00 5 C 6.25 g/m*3 1.83 C 14.5 km/h
687 29-01-2022 09:10:00 5.1 C 6.29 g/m*3 1.09 C 20.9 km/h
688 29-01-2022 09:15:00 5.1 C 6.29 g/m*3 1.71 C 16.1 km/h
689 29-01-2022 09:20:00 5.1 C 6.29 g/m*3 0.91 C 22.5 km/h
690 29-01-2022 09:25:00 5.2 C 6.33 g/m*3 2.34 C 12.9 km/h
691 29-01-2022 09:30:00 5.2 C 6.33 g/m*3 2.07 C 14.5 km/h
692 29-01-2022 09:35:00 5.2 C 6.33 g/m*3 1.61 C 17.7 km/h
693 29-01-2022 09:40:00 5.2 C 6.33 g/m*3 1.4 C 19.3 km/h
694 29-01-2022 09:45:00 5.2 C 6.33 g/m*3 1.83 C 16.1 km/h
695 29-01-2022 09:50:00 5.2 C 6.4 g/m*3 1.61 C 17.7 km/h
696 29-01-2022 09:55:00 5.2 C 6.4 g/m*3 2.07 C 14.5 km/h
697 29-01-2022 10:00:00 5.2 C 6.4 g/m*3 1.61 C 17.7 km/h
698 29-01-2022 10:05:00 5.3 C 6.38 g/m*3 1.74 C 17.7 km/h
699 29-01-2022 10:10:00 5.3 C 6.38 g/m*3 1.74 C 17.7 km/h
700 29-01-2022 10:15:00 5.3 C 6.38 g/m*3 1.53 C 19.3 km/h
Sensor: Nr:Datum:Temp:Abs-Feuchte:Windchill:Wind:
Aussen-T/F 701 29-01-2022 10:20:00 5.4 C 6.42 g/m*3 1.66 C 19.3 km/h
702 29-01-2022 10:25:00 5.5 C 6.46 g/m*3 1.78 C 19.3 km/h
703 29-01-2022 10:30:00 5.6 C 6.5 g/m*3 1.91 C 19.3 km/h
704 29-01-2022 10:35:00 5.6 C 6.5 g/m*3 2.11 C 17.7 km/h
705 29-01-2022 10:40:00 5.6 C 6.43 g/m*3 2.33 C 16.1 km/h
706 29-01-2022 10:45:00 5.6 C 6.43 g/m*3 2.33 C 16.1 km/h
707 29-01-2022 10:50:00 5.6 C 6.43 g/m*3 2.83 C 12.9 km/h
708 29-01-2022 10:55:00 5.7 C 6.48 g/m*3 2.24 C 17.7 km/h
709 29-01-2022 11:00:00 5.8 C 6.52 g/m*3 2.16 C 19.3 km/h
710 29-01-2022 11:05:00 5.8 C 6.45 g/m*3 1.8 C 22.5 km/h
711 29-01-2022 11:10:00 5.9 C 6.56 g/m*3 2.29 C 19.3 km/h
712 29-01-2022 11:15:00 6 C 6.53 g/m*3 2.61 C 17.7 km/h
713 29-01-2022 11:20:00 6.1 C 6.58 g/m*3 2.95 C 16.1 km/h
714 29-01-2022 11:25:00 6.2 C 6.62 g/m*3 3.3 C 14.5 km/h
715 29-01-2022 11:30:00 6.2 C 6.62 g/m*3 3.84 C 11.3 km/h
716 29-01-2022 11:35:00 6.2 C 6.62 g/m*3 3.3 C 14.5 km/h
717 29-01-2022 11:40:00 6.3 C 6.66 g/m*3 3.68 C 12.9 km/h
718 29-01-2022 11:45:00 6.3 C 6.66 g/m*3 3.2 C 16.1 km/h
719 29-01-2022 11:50:00 6.3 C 6.66 g/m*3 3.96 C 11.3 km/h
720 29-01-2022 11:55:00 6.3 C 6.66 g/m*3 3.68 C 12.9 km/h
721 29-01-2022 12:00:00 6.3 C 6.66 g/m*3 3.43 C 14.5 km/h
722 29-01-2022 12:05:00 6.4 C 6.71 g/m*3 3.8 C 12.9 km/h
723 29-01-2022 12:10:00 6.4 C 6.71 g/m*3 3.8 C 12.9 km/h
724 29-01-2022 12:15:00 6.4 C 6.71 g/m*3 4.08 C 11.3 km/h
725 29-01-2022 12:20:00 6.4 C 6.71 g/m*3 3.11 C 17.7 km/h
Sensor: Nr:Datum:Temp:Abs-Feuchte:Windchill:Wind:
Aussen-T/F 726 29-01-2022 12:25:00 6.6 C 6.79 g/m*3 3.17 C 19.3 km/h
727 29-01-2022 12:30:00 6.6 C 6.79 g/m*3 4.32 C 11.3 km/h
728 29-01-2022 12:35:00 6.6 C 6.79 g/m*3 3.36 C 17.7 km/h
729 29-01-2022 12:40:00 6.7 C 6.84 g/m*3 4.17 C 12.9 km/h
730 29-01-2022 12:45:00 6.7 C 6.84 g/m*3 4.44 C 11.3 km/h
731 29-01-2022 12:50:00 6.7 C 6.84 g/m*3 3.92 C 14.5 km/h
732 29-01-2022 12:55:00 6.8 C 6.88 g/m*3 4.04 C 14.5 km/h
733 29-01-2022 13:00:00 6.8 C 6.88 g/m*3 4.04 C 14.5 km/h
734 29-01-2022 13:05:00 6.8 C 6.88 g/m*3 4.04 C 14.5 km/h
735 29-01-2022 13:10:00 6.9 C 6.93 g/m*3 4.16 C 14.5 km/h
736 29-01-2022 13:15:00 6.9 C 6.93 g/m*3 3.73 C 17.7 km/h
737 29-01-2022 13:20:00 7 C 6.97 g/m*3 3.67 C 19.3 km/h
738 29-01-2022 13:25:00 7 C 6.97 g/m*3 4.29 C 14.5 km/h
739 29-01-2022 13:30:00 7 C 6.97 g/m*3 4.53 C 12.9 km/h
740 29-01-2022 13:35:00 7.1 C 7.02 g/m*3 4.65 C 12.9 km/h
741 29-01-2022 13:40:00 7.2 C 7.06 g/m*3 4.11 C 17.7 km/h
742 29-01-2022 13:45:00 7.2 C 7.06 g/m*3 4.11 C 17.7 km/h
743 29-01-2022 13:50:00 7.2 C 7.06 g/m*3 5.04 C 11.3 km/h
744 29-01-2022 13:55:00 7.3 C 7.11 g/m*3 4.44 C 16.1 km/h
745 29-01-2022 14:00:00 7.3 C 7.11 g/m*3 4.44 C 16.1 km/h
746 29-01-2022 14:05:00 7.3 C 7.11 g/m*3 4.23 C 17.7 km/h
747 29-01-2022 14:10:00 7.3 C 7.11 g/m*3 3.87 C 20.9 km/h
748 29-01-2022 14:15:00 7.3 C 7.11 g/m*3 5.16 C 11.3 km/h
749 29-01-2022 14:20:00 7.4 C 7.16 g/m*3 4.36 C 17.7 km/h
750 29-01-2022 14:25:00 7.4 C 7.16 g/m*3 4.56 C 16.1 km/h
Sensor: Nr:Datum:Temp:Abs-Feuchte:Windchill:Wind:
Aussen-T/F 751 29-01-2022 14:30:00 7.5 C 7.2 g/m*3 5.41 C 11.3 km/h
752 29-01-2022 14:35:00 7.6 C 7.25 g/m*3 5.53 C 11.3 km/h
753 29-01-2022 14:40:00 7.8 C 7.35 g/m*3 5.77 C 11.3 km/h
754 29-01-2022 14:45:00 7.9 C 7.31 g/m*3 5.63 C 12.9 km/h
755 29-01-2022 14:50:00 8.1 C 7.41 g/m*3 6.13 C 11.3 km/h
756 29-01-2022 14:55:00 8.2 C 7.45 g/m*3 5.99 C 12.9 km/h
757 29-01-2022 15:00:00 8.3 C 7.5 g/m*3 6.66 C 9.7 km/h
758 29-01-2022 15:05:00 8.6 C 7.56 g/m*3 5.86 C 17.7 km/h
759 29-01-2022 15:10:00 8.7 C 7.52 g/m*3 6.17 C 16.1 km/h
760 29-01-2022 15:15:00 8.8 C 7.57 g/m*3 6.11 C 17.7 km/h
761 29-01-2022 15:20:00 8.9 C 7.62 g/m*3 5.9 C 20.9 km/h
762 29-01-2022 15:25:00 9.1 C 7.72 g/m*3 6 C 22.5 km/h
763 29-01-2022 15:30:00 9.2 C 7.68 g/m*3 5.72 C 27.4 km/h
764 29-01-2022 15:35:00 9.2 C 7.68 g/m*3 5.99 C 24.1 km/h
765 29-01-2022 15:40:00 9.1 C 7.63 g/m*3 6.15 C 20.9 km/h
766 29-01-2022 15:45:00 9.1 C 7.63 g/m*3 6.48 C 17.7 km/h
767 29-01-2022 15:50:00 9 C 7.67 g/m*3 6.54 C 16.1 km/h
768 29-01-2022 15:55:00 9 C 7.67 g/m*3 6.75 C 14.5 km/h
769 29-01-2022 16:00:00 9 C 7.67 g/m*3 6.03 C 20.9 km/h
770 29-01-2022 16:05:00 9.1 C 7.72 g/m*3 6.31 C 19.3 km/h
771 29-01-2022 16:10:00 9.1 C 7.72 g/m*3 6.48 C 17.7 km/h
772 29-01-2022 16:15:00 9.1 C 7.72 g/m*3 6 C 22.5 km/h
773 29-01-2022 16:20:00 9.2 C 7.77 g/m*3 5.86 C 25.7 km/h
774 29-01-2022 16:25:00 9.2 C 7.77 g/m*3 5.99 C 24.1 km/h
775 29-01-2022 16:30:00 9.2 C 7.77 g/m*3 5.86 C 25.7 km/h
Sensor: Nr:Datum:Temp:Abs-Feuchte:Windchill:Wind:
Aussen-T/F 776 29-01-2022 16:35:00 9.2 C 7.77 g/m*3 6.13 C 22.5 km/h
777 29-01-2022 16:40:00 9.2 C 7.77 g/m*3 6.61 C 17.7 km/h
778 29-01-2022 16:45:00 9.2 C 7.77 g/m*3 6.79 C 16.1 km/h
779 29-01-2022 16:50:00 9.2 C 7.77 g/m*3 6.61 C 17.7 km/h
780 29-01-2022 16:55:00 9.2 C 7.77 g/m*3 6.13 C 22.5 km/h
781 29-01-2022 17:00:00 9.2 C 7.86 g/m*3 6.28 C 20.9 km/h
782 29-01-2022 17:05:00 9.2 C 7.86 g/m*3 6.28 C 20.9 km/h
783 29-01-2022 17:10:00 9.3 C 7.91 g/m*3 6.41 C 20.9 km/h
784 29-01-2022 17:15:00 9.3 C 7.91 g/m*3 5.85 C 27.4 km/h
785 29-01-2022 17:20:00 9.3 C 7.91 g/m*3 5.85 C 27.4 km/h
786 29-01-2022 17:25:00 9.3 C 7.91 g/m*3 5.85 C 27.4 km/h
787 29-01-2022 17:30:00 9.2 C 7.95 g/m*3 6.61 C 17.7 km/h
788 29-01-2022 17:35:00 9.2 C 7.95 g/m*3 6.44 C 19.3 km/h
789 29-01-2022 17:40:00 9.1 C 7.9 g/m*3 5.73 C 25.7 km/h
790 29-01-2022 17:45:00 9.1 C 7.99 g/m*3 5.86 C 24.1 km/h
791 29-01-2022 17:50:00 9 C 7.93 g/m*3 6.19 C 19.3 km/h
792 29-01-2022 17:55:00 8.9 C 7.97 g/m*3 6.23 C 17.7 km/h
793 29-01-2022 18:00:00 8.9 C 7.97 g/m*3 5.6 C 24.1 km/h
794 29-01-2022 18:05:00 8.9 C 7.97 g/m*3 6.23 C 17.7 km/h
795 29-01-2022 18:10:00 8.9 C 8.06 g/m*3 6.42 C 16.1 km/h
796 29-01-2022 18:15:00 8.8 C 8.01 g/m*3 6.11 C 17.7 km/h
797 29-01-2022 18:20:00 8.8 C 8.01 g/m*3 5.77 C 20.9 km/h
798 29-01-2022 18:25:00 8.9 C 8.15 g/m*3 6.06 C 19.3 km/h
799 29-01-2022 18:30:00 8.9 C 8.15 g/m*3 5.75 C 22.5 km/h
800 29-01-2022 18:35:00 8.9 C 8.15 g/m*3 5.75 C 22.5 km/h
Sensor: Nr:Datum:Temp:Abs-Feuchte:Windchill:Wind:
Aussen-T/F 801 29-01-2022 18:40:00 8.8 C 8.09 g/m*3 6.3 C 16.1 km/h
802 29-01-2022 18:45:00 8.8 C 8.09 g/m*3 5.77 C 20.9 km/h
803 29-01-2022 18:50:00 8.8 C 8.09 g/m*3 5.93 C 19.3 km/h
804 29-01-2022 18:55:00 8.8 C 8.18 g/m*3 5.77 C 20.9 km/h
805 29-01-2022 19:00:00 8.7 C 8.13 g/m*3 6.6 C 12.9 km/h
806 29-01-2022 19:05:00 8.7 C 8.13 g/m*3 5.98 C 17.7 km/h
807 29-01-2022 19:10:00 8.6 C 8.08 g/m*3 5.86 C 17.7 km/h
808 29-01-2022 19:15:00 8.6 C 8.08 g/m*3 5.86 C 17.7 km/h
809 29-01-2022 19:20:00 8.7 C 8.13 g/m*3 5.81 C 19.3 km/h
810 29-01-2022 19:25:00 8.7 C 8.13 g/m*3 5.81 C 19.3 km/h
811 29-01-2022 19:30:00 8.7 C 8.13 g/m*3 6.38 C 14.5 km/h
812 29-01-2022 19:35:00 8.8 C 8.18 g/m*3 6.5 C 14.5 km/h
813 29-01-2022 19:40:00 8.8 C 8.18 g/m*3 6.11 C 17.7 km/h
814 29-01-2022 19:45:00 8.9 C 8.23 g/m*3 5.9 C 20.9 km/h
815 29-01-2022 19:50:00 9 C 8.2 g/m*3 6.36 C 17.7 km/h
816 29-01-2022 19:55:00 9 C 8.2 g/m*3 6.19 C 19.3 km/h
817 29-01-2022 20:00:00 9.1 C 8.25 g/m*3 6.48 C 17.7 km/h
818 29-01-2022 20:05:00 9.2 C 8.3 g/m*3 6.99 C 14.5 km/h
819 29-01-2022 20:10:00 9.2 C 8.22 g/m*3 6.13 C 22.5 km/h
820 29-01-2022 20:15:00 9.3 C 8.27 g/m*3 6.92 C 16.1 km/h
821 29-01-2022 20:20:00 9.3 C 8.27 g/m*3 7.33 C 12.9 km/h
822 29-01-2022 20:25:00 9.3 C 8.18 g/m*3 7.12 C 14.5 km/h
823 29-01-2022 20:30:00 9.4 C 8.23 g/m*3 7.04 C 16.1 km/h
824 29-01-2022 20:35:00 9.4 C 8.23 g/m*3 7.46 C 12.9 km/h
825 29-01-2022 20:40:00 9.5 C 8.28 g/m*3 7.16 C 16.1 km/h
Sensor: Nr:Datum:Temp:Abs-Feuchte:Windchill:Wind:
Aussen-T/F 826 29-01-2022 20:45:00 9.6 C 8.34 g/m*3 7.94 C 11.3 km/h
827 29-01-2022 20:50:00 9.6 C 8.24 g/m*3 7.48 C 14.5 km/h
828 29-01-2022 20:55:00 9.7 C 8.3 g/m*3 7.82 C 12.9 km/h
829 29-01-2022 21:00:00 9.7 C 8.3 g/m*3 7.82 C 12.9 km/h
830 29-01-2022 21:05:00 9.8 C 8.35 g/m*3 7.94 C 12.9 km/h
831 29-01-2022 21:10:00 9.8 C 8.26 g/m*3 7.73 C 14.5 km/h
832 29-01-2022 21:15:00 9.8 C 8.26 g/m*3 7.36 C 17.7 km/h
833 29-01-2022 21:20:00 9.8 C 8.26 g/m*3 6.89 C 22.5 km/h
834 29-01-2022 21:25:00 9.9 C 8.31 g/m*3 7.32 C 19.3 km/h
835 29-01-2022 21:30:00 9.9 C 8.31 g/m*3 8.3 C 11.3 km/h
836 29-01-2022 21:35:00 9.8 C 8.26 g/m*3 7.54 C 16.1 km/h
837 29-01-2022 21:40:00 9.7 C 8.2 g/m*3 7.61 C 14.5 km/h
838 29-01-2022 21:45:00 9.7 C 8.3 g/m*3 7.61 C 14.5 km/h
839 29-01-2022 21:50:00 9.7 C 8.3 g/m*3 7.61 C 14.5 km/h
840 29-01-2022 21:55:00 9.6 C 8.24 g/m*3 7.7 C 12.9 km/h
841 29-01-2022 22:00:00 9.6 C 8.24 g/m*3 6.79 C 20.9 km/h
842 29-01-2022 22:05:00 9.7 C 8.2 g/m*3 7.07 C 19.3 km/h
843 29-01-2022 22:10:00 9.7 C 8.11 g/m*3 6.91 C 20.9 km/h
844 29-01-2022 22:15:00 9.6 C 7.97 g/m*3 7.48 C 14.5 km/h
845 29-01-2022 22:20:00 9.6 C 7.97 g/m*3 7.29 C 16.1 km/h
846 29-01-2022 22:25:00 9.6 C 7.88 g/m*3 6.94 C 19.3 km/h
847 29-01-2022 22:30:00 9.7 C 7.93 g/m*3 8.06 C 11.3 km/h
848 29-01-2022 22:35:00 9.7 C 7.74 g/m*3 8.06 C 11.3 km/h
849 29-01-2022 22:40:00 9.8 C 7.52 g/m*3 6.5 C 27.4 km/h
850 29-01-2022 22:45:00 9.9 C 7.38 g/m*3 7.48 C 17.7 km/h
Sensor: Nr:Datum:Temp:Abs-Feuchte:Windchill:Wind:
Aussen-T/F 851 29-01-2022 22:50:00 9.9 C 7.38 g/m*3 7.32 C 19.3 km/h
852 29-01-2022 22:55:00 10 C 7.33 g/m*3 7.29 C 20.9 km/h
853 29-01-2022 23:00:00 10.1 C 7.19 g/m*3 6.77 C 29 km/h
854 29-01-2022 23:05:00 10.1 C 7.19 g/m*3 7.28 C 22.5 km/h
855 29-01-2022 23:10:00 10.1 C 7.19 g/m*3 7.14 C 24.1 km/h
856 29-01-2022 23:15:00 10.1 C 7.19 g/m*3 7.42 C 20.9 km/h
857 29-01-2022 23:20:00 10.1 C 7.19 g/m*3 7.14 C 24.1 km/h
858 29-01-2022 23:25:00 10.1 C 7.19 g/m*3 7.28 C 22.5 km/h
859 29-01-2022 23:30:00 10 C 7.14 g/m*3 6.76 C 27.4 km/h
860 29-01-2022 23:35:00 9.9 C 7.1 g/m*3 7.02 C 22.5 km/h
861 29-01-2022 23:40:00 9.8 C 7.05 g/m*3 7.04 C 20.9 km/h
862 29-01-2022 23:45:00 9.8 C 7.05 g/m*3 7.36 C 17.7 km/h
863 29-01-2022 23:50:00 9.8 C 7.14 g/m*3 7.54 C 16.1 km/h
864 29-01-2022 23:55:00 9.7 C 7.1 g/m*3 7.23 C 17.7 km/h

Legende:
   Min
   Max


Maximal/Minimal-Werte vom 27.01.2022 - 29.01.2022

Sensor Min Max Avg
Temp
(Aussen-T/F)
1.7 °C
27-01-2022  02:40:00
10.1 °C
29-01-2022  23:00:00
5.32 °C
Abs-Feuchte
(Aussen-T/F)
4.79 g/m*3
27-01-2022  03:15:00
8.35 g/m*3
29-01-2022  21:05:00
6.12 g/m*3
Windchill
(Aussen-T/F)
-1.93 C
27-01-2022  03:20:00
8.3 C
29-01-2022  21:30:00
2.76 C

Die Daten stammen von einer Davis Vantage Pro 2 Wetter-Station und werden unter Linux mit der Software wview2wettercgi und aufbereitet. Alle Angaben erfolgen ohne Gewähr für ihre Vollständigkeit oder Richtigkeit.
Kontakt: Rainer Krienke krienke@uni-koblenz.de . Meine Webseiten an der Uni Koblenz oder privat.
Version: $Revision: 0.78 $